Time;durP1;ratioP1;P1;durP2;ratioP2;P2;SDS_P1;SDS_P2;PMS_P1;PMS_P2;Temp;Humidity;BMP_temperature;BMP_pressure;BME280_temperature;BME280_humidity;BME280_pressure;Samples;Min_cycle;Max_cycle;Signal;HPM_P1;HPM_P2
2023/11/20 00:02:17;;;;;;;5.53;1.40;;;11.70;88.60;;;;;;5014677;28;20447;-94
2023/11/20 00:04:43;;;;;;;6.68;2.47;;;11.70;88.50;;;;;;5031171;28;20022;-94
2023/11/20 00:07:10;;;;;;;7.63;3.10;;;11.70;88.10;;;;;;5044719;28;20021;-94
2023/11/20 00:09:36;;;;;;;8.45;2.00;;;11.70;89.00;;;;;;5013943;28;20117;-94
2023/11/20 00:12:03;;;;;;;9.52;3.53;;;11.70;88.80;;;;;;5031875;28;20032;-94
2023/11/20 00:14:29;;;;;;;7.00;1.60;;;11.60;89.10;;;;;;5040607;28;20021;-94
2023/11/20 00:16:54;;;;;;;8.75;1.75;;;11.50;89.20;;;;;;5039927;28;20022;-92
2023/11/20 00:19:20;;;;;;;10.88;2.83;;;11.50;89.00;;;;;;5043687;28;20103;-94
2023/11/20 00:21:47;;;;;;;9.98;2.38;;;11.60;88.80;;;;;;5041897;28;20022;-93
2023/11/20 00:24:13;;;;;;;6.85;2.33;;;11.60;88.40;;;;;;5043543;28;20071;-95
2023/11/20 00:26:38;;;;;;;7.00;2.28;;;11.70;89.00;;;;;;5014354;28;20496;-94
2023/11/20 00:29:04;;;;;;;8.75;2.28;;;11.70;88.80;;;;;;5030757;28;20037;-94
2023/11/20 00:31:35;;;;;;;11.95;1.98;;;11.70;88.40;;;;;;5027122;28;20030;-95
2023/11/20 00:34:02;;;;;;;7.10;2.47;;;11.80;88.10;;;;;;5050780;28;20017;-94
2023/11/20 00:36:27;;;;;;;5.68;2.08;;;11.80;88.50;;;;;;5046776;28;20017;-95
2023/11/20 00:38:53;;;;;;;9.05;2.20;;;11.80;88.60;;;;;;5045685;28;20081;-95
2023/11/20 00:41:21;;;;;;;9.68;3.83;;;11.90;88.80;;;;;;5018818;28;20097;-93
2023/11/20 00:43:47;;;;;;;11.73;3.22;;;11.90;88.70;;;;;;5021496;28;20507;-94
2023/11/20 00:46:16;;;;;;;7.35;2.40;;;12.00;87.90;;;;;;5045551;28;20029;-95
2023/11/20 00:48:44;;;;;;;9.27;3.03;;;12.00;88.60;;;;;;5028189;28;20030;-95
2023/11/20 00:51:09;;;;;;;13.90;3.38;;;11.90;89.20;;;;;;5028511;28;20029;-95
2023/11/20 00:53:35;;;;;;;15.10;2.97;;;12.00;88.60;;;;;;5044739;28;20017;-94
2023/11/20 00:56:01;;;;;;;9.68;2.95;;;11.90;89.10;;;;;;5042024;28;20040;-94
2023/11/20 00:58:26;;;;;;;6.32;2.58;;;11.90;89.70;;;;;;5033494;28;20040;-94
2023/11/20 01:00:54;;;;;;;5.28;1.98;;;11.90;89.80;;;;;;5014469;28;20018;-94
2023/11/20 01:03:20;;;;;;;12.43;3.33;;;11.90;89.50;;;;;;5008613;28;20026;-95
2023/11/20 01:05:48;;;;;;;10.48;1.92;;;11.80;89.80;;;;;;5037633;28;20025;-95
2023/11/20 01:08:13;;;;;;;11.63;2.42;;;11.90;90.10;;;;;;5046585;28;20132;-95
2023/11/20 01:10:39;;;;;;;10.70;3.63;;;11.90;90.40;;;;;;5033628;28;20029;-94
2023/11/20 01:13:05;;;;;;;10.65;2.17;;;11.90;90.20;;;;;;5032695;28;20026;-94
2023/11/20 01:15:31;;;;;;;6.80;2.20;;;11.90;90.20;;;;;;5017606;28;20078;-94
2023/11/20 01:17:57;;;;;;;10.48;2.38;;;11.90;90.70;;;;;;5008007;28;20057;-94
2023/11/20 01:20:23;;;;;;;11.07;2.95;;;11.80;90.70;;;;;;5037634;28;20041;-94
2023/11/20 01:22:49;;;;;;;7.50;2.42;;;11.90;90.90;;;;;;5048569;28;20009;-95
2023/11/20 01:25:14;;;;;;;7.90;2.17;;;11.90;91.40;;;;;;5049805;28;20026;-94
2023/11/20 01:27:40;;;;;;;13.55;2.90;;;11.90;91.10;;;;;;5029344;28;20637;-94
2023/11/20 01:30:09;;;;;;;12.88;3.38;;;11.90;91.20;;;;;;5030798;28;20109;-94
2023/11/20 01:32:36;;;;;;;7.75;2.15;;;12.00;91.40;;;;;;5017819;28;20564;-94
2023/11/20 01:35:01;;;;;;;11.77;3.08;;;11.90;91.20;;;;;;5041173;28;20018;-93
2023/11/20 01:37:27;;;;;;;8.75;2.15;;;11.90;91.50;;;;;;5039106;28;20029;-94
2023/11/20 01:39:53;;;;;;;6.68;2.15;;;12.00;91.60;;;;;;5030031;28;20464;-94
2023/11/20 01:42:19;;;;;;;11.43;2.30;;;12.10;90.80;;;;;;5025679;28;20087;-93
2023/11/20 01:44:45;;;;;;;8.82;2.50;;;12.10;91.40;;;;;;5044852;28;20021;-93
2023/11/20 01:47:11;;;;;;;20.33;3.28;;;12.10;90.60;;;;;;5034223;28;20021;-94
2023/11/20 01:49:39;;;;;;;10.65;2.90;;;12.20;90.50;;;;;;5019403;28;20036;-93
2023/11/20 01:52:06;;;;;;;7.32;1.98;;;12.30;90.20;;;;;;5025273;28;20018;-94
2023/11/20 01:54:33;;;;;;;10.70;2.60;;;12.30;91.30;;;;;;5037277;28;20056;-95
2023/11/20 01:57:00;;;;;;;11.90;2.63;;;12.30;90.20;;;;;;5044918;28;20562;-94
2023/11/20 01:59:27;;;;;;;7.53;2.15;;;12.30;90.40;;;;;;5034974;28;20026;-96
2023/11/20 02:01:53;;;;;;;8.02;2.10;;;12.20;90.50;;;;;;5031445;28;20112;-94
2023/11/20 02:04:22;;;;;;;11.90;2.95;;;12.30;90.50;;;;;;5009813;28;20090;-95
2023/11/20 02:06:49;;;;;;;10.48;2.17;;;12.20;90.30;;;;;;5020512;28;20026;-93
2023/11/20 02:09:16;;;;;;;7.68;1.65;;;12.20;90.70;;;;;;5019594;28;20088;-94
2023/11/20 02:11:46;;;;;;;10.45;2.05;;;12.20;90.50;;;;;;5026479;28;20044;-94
2023/11/20 02:14:14;;;;;;;8.10;2.53;;;12.20;90.10;;;;;;5031359;28;20022;-94
2023/11/20 02:16:40;;;;;;;8.57;1.90;;;12.20;90.30;;;;;;5015863;28;20061;-94
2023/11/20 02:19:15;;;;;;;9.85;2.47;;;12.20;90.30;;;;;;5034478;28;20084;-94
2023/11/20 02:21:47;;;;;;;10.25;2.42;;;12.20;90.40;;;;;;5038950;28;20045;-94
2023/11/20 02:24:13;;;;;;;6.32;2.05;;;12.20;89.40;;;;;;5031134;28;20026;-95
2023/11/20 02:26:55;;;;;;;6.25;2.53;;;12.20;89.70;;;;;;5030251;28;20018;-94
2023/11/20 02:29:31;;;;;;;12.95;3.22;;;12.30;89.30;;;;;;5027007;28;20056;-94
2023/11/20 02:31:57;;;;;;;12.02;2.55;;;12.30;88.30;;;;;;5034273;28;20025;-96
2023/11/20 02:34:23;;;;;;;10.18;2.00;;;12.30;88.50;;;;;;5050225;28;20028;-96
2023/11/20 02:36:49;;;;;;;11.65;2.72;;;12.30;88.90;;;;;;5051024;28;20116;-94
2023/11/20 02:39:17;;;;;;;6.85;2.28;;;12.20;88.70;;;;;;5037164;28;20040;-94
2023/11/20 02:41:43;;;;;;;7.05;1.65;;;12.30;89.10;;;;;;5042149;28;20045;-95
2023/11/20 02:44:09;;;;;;;6.07;1.83;;;12.20;89.20;;;;;;5022779;28;20030;-95
2023/11/20 02:46:35;;;;;;;7.72;2.13;;;12.20;88.70;;;;;;5016250;28;20117;-93
2023/11/20 02:49:01;;;;;;;10.90;2.45;;;12.20;89.00;;;;;;5023132;28;20026;-94
2023/11/20 02:51:30;;;;;;;11.25;2.85;;;12.20;89.00;;;;;;5022232;28;20053;-94
2023/11/20 02:53:56;;;;;;;11.90;2.70;;;12.20;88.70;;;;;;5035128;28;20049;-95
2023/11/20 02:56:24;;;;;;;8.20;2.13;;;12.20;88.50;;;;;;5024401;28;20026;-95
2023/11/20 02:58:49;;;;;;;;;;;12.20;88.70;;;;;;5045821;28;20018;-96
2023/11/20 03:01:15;;;;;;;9.63;1.88;;;12.20;89.10;;;;;;5029719;28;19905;-94
2023/11/20 03:03:41;;;;;;;11.82;1.70;;;12.20;89.40;;;;;;5043829;28;20029;-94
2023/11/20 03:06:07;;;;;;;10.27;2.50;;;12.10;89.10;;;;;;5048773;28;20097;-93
2023/11/20 03:08:33;;;;;;;8.45;2.35;;;12.10;88.80;;;;;;5021615;28;20053;-95
2023/11/20 03:10:58;;;;;;;10.73;2.00;;;12.10;89.30;;;;;;5039023;28;20027;-94
2023/11/20 03:13:24;;;;;;;7.50;2.35;;;12.20;88.90;;;;;;5050244;28;20056;-94
2023/11/20 03:15:50;;;;;;;10.80;2.60;;;12.10;89.60;;;;;;5047954;28;20014;-94
2023/11/20 03:18:17;;;;;;;7.25;2.05;;;12.10;90.00;;;;;;5041825;28;20044;-94
2023/11/20 03:20:42;;;;;;;9.48;2.10;;;12.10;89.70;;;;;;5037746;28;20021;-95
2023/11/20 03:23:10;;;;;;;9.77;1.88;;;12.10;89.90;;;;;;5051791;28;20030;-94
2023/11/20 03:25:36;;;;;;;14.23;3.97;;;12.10;89.70;;;;;;5053212;28;20053;-94
2023/11/20 03:28:03;;;;;;;9.38;2.28;;;12.10;90.50;;;;;;5045531;28;20080;-95
2023/11/20 03:30:32;;;;;;;12.43;2.10;;;12.10;90.50;;;;;;5050387;28;20030;-94
2023/11/20 03:32:58;;;;;;;6.95;1.85;;;12.10;91.20;;;;;;5020433;28;20022;-94
2023/11/20 03:35:24;;;;;;;16.80;2.45;;;12.00;90.90;;;;;;5058333;28;20025;-96
2023/11/20 03:37:49;;;;;;;11.68;2.17;;;12.00;91.80;;;;;;5029376;28;20030;-95
2023/11/20 03:40:15;;;;;;;10.57;2.50;;;12.00;91.00;;;;;;5021775;28;20101;-94
2023/11/20 03:42:41;;;;;;;9.38;2.58;;;12.00;90.90;;;;;;5013652;28;20029;-94
2023/11/20 03:45:07;;;;;;;8.40;2.38;;;12.00;91.30;;;;;;5022232;28;20037;-94
2023/11/20 03:47:33;;;;;;;11.27;1.65;;;12.00;91.70;;;;;;5035527;28;20030;-94
2023/11/20 03:49:59;;;;;;;9.35;2.75;;;12.00;92.30;;;;;;5034087;28;20061;-94
2023/11/20 03:52:26;;;;;;;11.30;2.35;;;12.00;92.40;;;;;;5031729;28;20034;-93
2023/11/20 03:54:52;;;;;;;17.73;3.17;;;11.90;93.00;;;;;;5045443;28;20022;-95
2023/11/20 03:57:18;;;;;;;9.23;1.75;;;11.90;92.30;;;;;;5046970;28;20035;-95
2023/11/20 03:59:44;;;;;;;11.63;3.42;;;11.90;92.00;;;;;;5039398;28;20032;-93
2023/11/20 04:02:10;;;;;;;9.63;2.92;;;11.90;92.10;;;;;;5029296;28;20048;-94
2023/11/20 04:04:36;;;;;;;13.48;3.25;;;11.90;92.60;;;;;;5022166;28;20025;-96
2023/11/20 04:07:01;;;;;;;11.27;2.47;;;11.90;92.80;;;;;;5052811;28;20033;-96
2023/11/20 04:09:27;;;;;;;11.55;3.08;;;11.90;93.10;;;;;;5058218;28;20022;-95
2023/11/20 04:11:53;;;;;;;8.85;3.15;;;11.90;93.00;;;;;;5040888;28;20113;-96
2023/11/20 04:14:18;;;;;;;7.50;2.72;;;11.90;93.10;;;;;;5047013;28;20064;-94
2023/11/20 04:16:45;;;;;;;9.90;1.75;;;11.80;93.00;;;;;;5040758;28;20029;-95
2023/11/20 04:19:13;;;;;;;13.73;1.95;;;11.80;93.70;;;;;;5034054;28;20028;-95
2023/11/20 04:21:39;;;;;;;11.48;2.83;;;11.80;93.00;;;;;;5027892;28;20060;-93
2023/11/20 04:24:08;;;;;;;10.15;2.75;;;11.80;93.30;;;;;;5039506;28;20033;-95
2023/11/20 04:26:34;;;;;;;6.10;2.47;;;11.80;93.60;;;;;;5046007;28;20041;-96
2023/11/20 04:29:00;;;;;;;8.27;2.38;;;11.80;93.50;;;;;;5035506;28;20033;-94
2023/11/20 04:31:26;;;;;;;8.40;2.50;;;11.70;93.20;;;;;;5029975;28;20029;-95
2023/11/20 04:33:52;;;;;;;15.70;2.85;;;11.70;93.50;;;;;;5036392;28;20034;-94
2023/11/20 04:36:19;;;;;;;5.05;2.28;;;11.80;92.40;;;;;;5032969;28;20036;-93
2023/11/20 04:38:45;;;;;;;9.68;2.03;;;11.80;92.40;;;;;;5043410;28;20033;-91
2023/11/20 04:41:10;;;;;;;13.40;2.67;;;11.80;91.90;;;;;;5027977;28;20079;-93
2023/11/20 04:43:36;;;;;;;10.50;3.08;;;11.80;91.70;;;;;;5037877;28;20024;-91
2023/11/20 04:46:02;;;;;;;9.80;1.98;;;11.80;91.70;;;;;;5015636;28;20006;-93
2023/11/20 04:48:28;;;;;;;11.80;3.25;;;11.80;91.60;;;;;;5022425;28;20037;-92
2023/11/20 04:50:53;;;;;;;10.88;2.28;;;11.80;91.10;;;;;;5027252;28;20030;-96
2023/11/20 04:53:21;;;;;;;13.18;2.08;;;11.80;90.00;;;;;;5044177;28;20556;-92
2023/11/20 04:55:47;;;;;;;7.72;1.75;;;11.80;90.00;;;;;;5038011;28;20037;-91
2023/11/20 04:58:21;;;;;;;11.75;2.45;;;11.80;90.20;;;;;;5045663;28;20044;-95
2023/11/20 05:00:52;;;;;;;8.07;2.40;;;11.80;90.00;;;;;;5023169;28;20049;-92
2023/11/20 05:03:19;;;;;;;6.90;1.90;;;11.80;89.50;;;;;;5024284;28;20029;-92
2023/11/20 05:05:45;;;;;;;8.02;3.20;;;11.80;89.70;;;;;;5018021;28;20078;-93
2023/11/20 05:08:11;;;;;;;9.30;2.05;;;11.80;89.30;;;;;;5007269;28;20034;-93
2023/11/20 05:10:36;;;;;;;9.95;3.03;;;11.80;89.10;;;;;;5003717;28;20027;-93
2023/11/20 05:15:35;;;;;;;8.43;2.20;;;11.80;88.60;;;;;;5009100;28;20069;-95
2023/11/20 05:18:01;;;;;;;9.30;2.00;;;11.80;88.90;;;;;;5003437;28;20481;-93
2023/11/20 05:20:27;;;;;;;6.85;2.08;;;11.80;88.90;;;;;;5009781;28;20037;-94
2023/11/20 05:22:52;;;;;;;8.70;3.08;;;11.80;88.60;;;;;;4996848;28;20030;-92
2023/11/20 05:25:18;;;;;;;10.45;2.40;;;11.80;89.30;;;;;;4995037;28;20030;-93
2023/11/20 05:27:44;;;;;;;7.95;2.33;;;11.70;89.50;;;;;;5003261;28;20035;-93
2023/11/20 05:30:11;;;;;;;6.47;1.95;;;11.60;90.10;;;;;;4993708;28;20014;-92
2023/11/20 05:32:37;;;;;;;12.68;2.15;;;11.70;90.80;;;;;;4994520;28;20022;-91
2023/11/20 05:35:03;;;;;;;20.50;2.55;;;11.70;90.40;;;;;;4993628;28;20057;-93
2023/11/20 05:37:29;;;;;;;6.22;2.25;;;11.60;89.40;;;;;;4987750;28;20513;-93
2023/11/20 05:39:55;;;;;;;14.15;2.70;;;11.60;89.50;;;;;;4983798;28;20095;-93
2023/11/20 05:42:20;;;;;;;9.75;2.10;;;11.60;89.60;;;;;;4976476;28;20077;-93
2023/11/20 05:44:46;;;;;;;10.93;2.55;;;11.70;90.10;;;;;;5006273;28;20019;-93
2023/11/20 05:47:12;;;;;;;9.43;2.25;;;11.60;90.20;;;;;;5011264;28;20264;-93
2023/11/20 05:49:38;;;;;;;12.27;2.13;;;11.60;89.50;;;;;;5007704;28;20049;-93
2023/11/20 05:52:04;;;;;;;13.98;2.58;;;11.60;90.10;;;;;;5003736;28;20022;-93
2023/11/20 05:54:30;;;;;;;10.73;2.22;;;11.60;89.90;;;;;;4987839;28;20034;-93
2023/11/20 05:56:56;;;;;;;5.72;1.70;;;11.60;88.90;;;;;;4985539;28;20018;-93
2023/11/20 05:59:24;;;;;;;8.55;2.28;;;11.50;89.80;;;;;;4994384;28;20031;-92
2023/11/20 06:01:50;;;;;;;8.25;2.03;;;11.50;89.20;;;;;;4993692;28;20011;-95
2023/11/20 06:04:15;;;;;;;15.60;2.75;;;11.50;89.20;;;;;;4996294;28;20026;-93
2023/11/20 06:06:41;;;;;;;9.55;1.63;;;11.50;89.40;;;;;;4996025;28;20026;-94
2023/11/20 06:09:10;;;;;;;12.00;2.45;;;11.50;88.80;;;;;;4995838;28;20045;-94
2023/11/20 06:11:37;;;;;;;8.80;2.53;;;11.60;89.10;;;;;;4990997;28;20018;-95
2023/11/20 06:14:03;;;;;;;5.55;1.75;;;11.50;89.40;;;;;;4995697;28;20084;-94
2023/11/20 06:16:29;;;;;;;12.00;2.72;;;11.60;89.60;;;;;;5015340;28;20094;-94
2023/11/20 06:18:55;;;;;;;8.88;2.95;;;11.60;89.20;;;;;;5015059;28;20042;-94
2023/11/20 06:21:21;;;;;;;7.82;2.10;;;11.50;89.10;;;;;;4997810;28;20027;-93
2023/11/20 06:23:47;;;;;;;10.90;3.50;;;11.50;88.90;;;;;;4995181;28;20023;-94
2023/11/20 06:26:13;;;;;;;5.93;1.48;;;11.60;89.20;;;;;;4996451;28;20107;-93
2023/11/20 06:28:42;;;;;;;10.55;2.45;;;11.50;88.70;;;;;;4996216;28;20039;-93
2023/11/20 06:31:11;;;;;;;7.43;2.20;;;11.50;89.40;;;;;;5004919;28;20026;-94
2023/11/20 06:33:38;;;;;;;8.98;2.80;;;11.50;89.60;;;;;;4993731;28;20026;-93
2023/11/20 06:36:04;;;;;;;8.40;2.97;;;11.50;88.30;;;;;;5009545;28;20038;-94
2023/11/20 06:38:30;;;;;;;4.57;1.58;;;11.50;88.40;;;;;;4992671;28;20034;-95
2023/11/20 06:40:58;;;;;;;9.27;1.95;;;11.50;90.10;;;;;;5009344;28;20094;-95
2023/11/20 06:43:24;;;;;;;6.78;2.05;;;11.50;89.00;;;;;;5007314;28;20034;-95
2023/11/20 06:45:50;;;;;;;8.88;1.42;;;11.60;89.80;;;;;;5028626;22;20579;-93
2023/11/20 06:48:16;;;;;;;8.38;2.60;;;11.60;89.60;;;;;;5006368;28;20041;-94
2023/11/20 06:50:42;;;;;;;11.65;3.45;;;11.50;90.30;;;;;;5023412;28;20026;-91
2023/11/20 06:53:09;;;;;;;12.13;2.22;;;11.50;90.70;;;;;;5004048;28;20033;-93
2023/11/20 06:55:36;;;;;;;10.20;1.83;;;11.50;90.20;;;;;;4997209;28;20022;-93
2023/11/20 06:58:02;;;;;;;6.55;1.75;;;11.50;90.50;;;;;;5023177;28;20037;-93
2023/11/20 07:00:28;;;;;;;9.23;2.15;;;11.50;90.70;;;;;;5004696;28;20057;-94
2023/11/20 07:02:54;;;;;;;6.68;2.38;;;11.40;91.10;;;;;;5010226;28;20092;-93
2023/11/20 07:05:23;;;;;;;13.00;2.92;;;11.40;90.60;;;;;;5022032;28;20040;-92
2023/11/20 07:07:55;;;;;;;6.70;1.48;;;11.40;91.30;;;;;;5004144;28;20026;-94
2023/11/20 07:10:25;;;;;;;7.72;2.15;;;11.40;89.90;;;;;;5021646;28;20022;-93
2023/11/20 07:12:58;;;;;;;6.95;1.40;;;11.40;89.70;;;;;;5020697;28;20026;-95
2023/11/20 07:15:24;;;;;;;8.30;2.05;;;11.40;89.50;;;;;;5021253;28;20044;-93
2023/11/20 07:17:50;;;;;;;6.88;2.47;;;11.50;89.80;;;;;;5003135;28;20022;-94
2023/11/20 07:20:17;;;;;;;7.82;2.45;;;11.40;90.00;;;;;;5014994;28;20644;-94
2023/11/20 07:22:42;;;;;;;10.13;2.55;;;11.40;90.40;;;;;;5024025;28;20059;-94
2023/11/20 07:25:08;;;;;;;10.93;2.63;;;11.40;90.30;;;;;;5024066;28;20100;-92
2023/11/20 07:27:38;;;;;;;4.45;1.95;;;11.40;90.30;;;;;;5014809;28;20030;-93
2023/11/20 07:30:06;;;;;;;7.45;2.70;;;11.40;90.40;;;;;;5004247;28;20034;-92
2023/11/20 07:32:35;;;;;;;11.52;2.40;;;11.40;90.20;;;;;;5003359;28;20065;-94
2023/11/20 07:35:04;;;;;;;9.98;1.65;;;11.40;90.50;;;;;;5020658;28;20353;-92
2023/11/20 07:37:31;;;;;;;7.80;2.97;;;11.50;89.30;;;;;;5004952;28;20026;-93
2023/11/20 07:39:57;;;;;;;7.55;2.50;;;11.50;89.00;;;;;;5015254;28;20037;-93
2023/11/20 07:42:24;;;;;;;7.20;2.80;;;11.50;90.00;;;;;;5014907;28;20030;-92
2023/11/20 07:44:50;;;;;;;17.00;6.65;;;11.50;89.90;;;;;;5008589;28;20022;-93
2023/11/20 07:47:16;;;;;;;7.57;1.63;;;11.50;89.90;;;;;;5026149;28;20149;-92
2023/11/20 07:49:41;;;;;;;8.07;1.95;;;11.50;89.60;;;;;;5025615;28;20037;-93
2023/11/20 07:52:09;;;;;;;6.97;1.98;;;11.40;89.70;;;;;;5025623;28;20025;-91
2023/11/20 07:54:35;;;;;;;9.73;2.88;;;11.40;89.70;;;;;;5025916;28;20018;-92
2023/11/20 07:57:04;;;;;;;7.22;2.50;;;11.40;89.60;;;;;;5027141;28;20029;-92
2023/11/20 07:59:30;;;;;;;8.80;2.55;;;11.50;90.00;;;;;;5024549;28;20026;-92
2023/11/20 08:01:56;;;;;;;10.43;2.22;;;11.40;89.40;;;;;;5025077;28;20072;-93
2023/11/20 08:04:22;;;;;;;7.38;1.90;;;11.40;90.40;;;;;;5028473;28;20030;-92
2023/11/20 08:06:47;;;;;;;9.75;2.42;;;11.40;91.50;;;;;;5030028;28;20132;-92
2023/11/20 08:09:16;;;;;;;8.68;1.92;;;11.40;91.50;;;;;;5029793;28;20030;-94
2023/11/20 08:11:42;;;;;;;6.93;2.65;;;11.40;89.70;;;;;;5020010;28;20030;-94
2023/11/20 08:14:08;;;;;;;6.72;1.90;;;11.40;90.70;;;;;;5008238;28;20030;-95
2023/11/20 08:16:34;;;;;;;9.20;2.33;;;11.40;90.00;;;;;;5017628;28;20018;-92
2023/11/20 08:19:02;;;;;;;5.93;2.42;;;11.40;90.00;;;;;;5025412;28;20022;-93
2023/11/20 08:21:27;;;;;;;13.15;2.78;;;11.40;90.20;;;;;;5013368;28;20056;-91
2023/11/20 08:23:54;;;;;;;10.80;2.40;;;11.50;89.60;;;;;;5006545;28;20030;-93
2023/11/20 08:26:20;;;;;;;7.55;1.92;;;11.40;89.70;;;;;;5013808;28;20045;-93
2023/11/20 08:28:45;;;;;;;9.00;2.05;;;11.50;90.60;;;;;;5025095;28;20033;-94
2023/11/20 08:31:11;;;;;;;9.57;2.20;;;11.40;94.30;;;;;;5027130;28;20048;-94
2023/11/20 08:33:37;;;;;;;8.40;2.17;;;11.10;99.10;;;;;;5008657;28;20076;-94
2023/11/20 08:36:03;;;;;;;3.88;1.58;;;10.90;99.90;;;;;;5007589;28;20034;-95
2023/11/20 08:38:28;;;;;;;9.77;2.35;;;10.70;99.90;;;;;;5027098;28;20036;-93
2023/11/20 08:40:54;;;;;;;8.90;2.33;;;10.60;99.90;;;;;;5027077;28;20501;-94
2023/11/20 08:43:20;;;;;;;7.40;1.55;;;10.50;99.90;;;;;;5002356;28;20026;-92
2023/11/20 08:45:46;;;;;;;6.05;1.63;;;10.40;99.90;;;;;;5009196;28;20041;-93
2023/11/20 08:48:11;;;;;;;9.75;2.28;;;10.40;99.90;;;;;;5010222;28;20493;-95
2023/11/20 08:50:37;;;;;;;6.40;1.88;;;10.40;99.90;;;;;;5027514;28;20035;-93
2023/11/20 08:53:03;;;;;;;8.25;2.03;;;10.30;99.90;;;;;;5028195;28;20029;-93
2023/11/20 08:55:28;;;;;;;6.60;1.85;;;10.40;99.90;;;;;;5016051;28;20359;-93
2023/11/20 08:57:54;;;;;;;4.35;1.65;;;10.30;99.90;;;;;;5018829;28;20108;-93
2023/11/20 09:00:20;;;;;;;7.50;2.00;;;10.40;99.90;;;;;;5024567;28;20021;-93
2023/11/20 09:02:46;;;;;;;9.38;2.03;;;10.40;99.90;;;;;;5012600;28;20050;-94
2023/11/20 09:05:13;;;;;;;15.68;3.47;;;10.50;99.90;;;;;;5018222;28;20030;-93
2023/11/20 09:07:40;;;;;;;10.45;2.10;;;10.70;99.90;;;;;;5008046;28;20034;-93
2023/11/20 09:10:08;;;;;;;6.78;2.42;;;10.80;99.90;;;;;;5022414;28;20018;-93
2023/11/20 09:12:35;;;;;;;7.43;2.03;;;10.70;99.90;;;;;;5009019;28;20071;-95
2023/11/20 09:15:01;;;;;;;5.40;1.92;;;10.70;99.90;;;;;;5026087;28;20018;-93
2023/11/20 09:17:27;;;;;;;7.07;2.30;;;10.70;99.90;;;;;;5008949;28;20024;-94
2023/11/20 09:19:53;;;;;;;8.43;1.65;;;10.60;99.90;;;;;;5027107;28;20071;-92
2023/11/20 09:22:18;;;;;;;7.75;2.60;;;10.60;99.90;;;;;;5023330;28;20077;-94
2023/11/20 09:24:45;;;;;;;8.98;2.28;;;10.50;99.90;;;;;;5006162;28;20028;-94
2023/11/20 09:27:11;;;;;;;7.90;1.45;;;10.50;99.90;;;;;;5015841;28;20110;-93
2023/11/20 09:29:37;;;;;;;10.30;3.00;;;10.40;99.90;;;;;;5023926;28;20017;-94
2023/11/20 09:32:03;;;;;;;7.75;2.05;;;10.30;99.90;;;;;;5005854;28;20179;-92
2023/11/20 09:34:29;;;;;;;5.97;2.10;;;10.30;99.90;;;;;;5023442;28;20034;-94
2023/11/20 09:36:56;;;;;;;6.15;2.35;;;10.40;99.90;;;;;;5024331;28;20097;-95
2023/11/20 09:39:21;;;;;;;11.77;3.38;;;10.40;99.90;;;;;;5024234;28;20053;-94
2023/11/20 09:41:47;;;;;;;6.85;2.05;;;10.50;99.90;;;;;;5007556;28;20029;-95
2023/11/20 09:44:13;;;;;;;9.25;1.75;;;10.50;99.90;;;;;;5007753;28;20042;-94
2023/11/20 09:46:45;;;;;;;12.80;3.38;;;10.40;99.90;;;;;;5025460;28;20038;-94
2023/11/20 09:49:18;;;;;;;7.60;2.50;;;10.40;99.90;;;;;;5024693;28;20033;-94
2023/11/20 09:51:45;;;;;;;5.75;2.42;;;10.50;99.90;;;;;;5025611;28;20025;-94
2023/11/20 09:54:12;;;;;;;8.40;2.90;;;10.50;99.90;;;;;;5025969;28;20014;-94
2023/11/20 09:56:38;;;;;;;3.90;1.58;;;10.60;99.90;;;;;;5007347;28;20026;-92
2023/11/20 09:59:04;;;;;;;8.32;2.92;;;10.60;99.90;;;;;;5024086;28;20088;-93
2023/11/20 10:01:30;;;;;;;9.75;2.92;;;10.70;99.90;;;;;;5023252;28;20029;-94
2023/11/20 10:03:57;;;;;;;7.05;1.90;;;10.60;99.90;;;;;;5025433;28;20021;-94
2023/11/20 10:06:26;;;;;;;6.53;1.98;;;10.70;99.90;;;;;;5028167;28;20036;-93
2023/11/20 10:08:54;;;;;;;4.95;2.28;;;10.70;99.90;;;;;;5026878;28;20030;-95
2023/11/20 10:11:22;;;;;;;4.90;1.88;;;10.80;99.90;;;;;;5006480;28;20018;-94
2023/11/20 10:13:47;;;;;;;9.02;2.40;;;10.90;99.90;;;;;;5010328;28;20101;-95
2023/11/20 10:16:19;;;;;;;10.25;1.83;;;11.00;99.90;;;;;;5024251;28;20439;-93
2023/11/20 10:18:46;;;;;;;6.55;2.03;;;11.10;99.90;;;;;;5025983;28;20022;-94
2023/11/20 10:21:12;;;;;;;5.75;1.70;;;11.30;99.90;;;;;;5008706;28;20026;-95
2023/11/20 10:23:40;;;;;;;7.32;1.95;;;11.40;99.90;;;;;;5025621;28;20238;-95
2023/11/20 10:26:07;;;;;;;10.75;1.92;;;11.70;99.90;;;;;;5025317;28;20030;-94
2023/11/20 10:28:40;;;;;;;4.68;2.45;;;11.70;99.90;;;;;;5025051;28;20080;-94
2023/11/20 10:31:06;;;;;;;5.50;2.13;;;11.70;99.90;;;;;;5007704;28;20018;-93
2023/11/20 10:33:31;;;;;;;6.70;1.95;;;11.90;99.10;;;;;;5025698;28;20018;-94
2023/11/20 10:36:11;;;;;;;4.25;1.40;;;11.80;98.00;;;;;;5024527;28;20493;-93
2023/11/20 10:38:37;;;;;;;5.30;1.77;;;11.70;98.40;;;;;;5004245;28;20030;-93
2023/11/20 10:41:08;;;;;;;5.82;3.15;;;11.70;98.50;;;;;;4988734;28;20033;-94
2023/11/20 10:43:36;;;;;;;7.18;1.42;;;11.90;97.90;;;;;;4989313;28;20034;-94
2023/11/20 10:46:03;;;;;;;;;;;12.00;96.30;;;;;;5014702;28;20030;-92
2023/11/20 10:48:47;;;;;;;7.00;1.90;;;12.00;97.10;;;;;;5008491;28;20004;-95
2023/11/20 10:51:19;;;;;;;3.97;1.88;;;12.00;97.70;;;;;;5026903;28;20038;-93
2023/11/20 10:53:51;;;;;;;5.05;1.55;;;11.90;96.50;;;;;;5010779;28;20085;-94
2023/11/20 10:56:17;;;;;;;3.88;1.48;;;11.80;97.10;;;;;;5026843;28;20037;-94
2023/11/20 10:58:45;;;;;;;4.75;1.27;;;11.80;96.50;;;;;;5009973;28;20026;-91
2023/11/20 11:01:14;;;;;;;3.60;1.00;;;11.80;95.90;;;;;;5026985;28;20026;-94
2023/11/20 11:03:41;;;;;;;5.78;1.45;;;11.70;96.10;;;;;;5028027;28;20113;-91
2023/11/20 11:06:10;;;;;;;5.38;1.75;;;11.80;97.80;;;;;;5027968;28;20037;-94
2023/11/20 11:08:37;;;;;;;10.20;2.75;;;11.80;95.60;;;;;;5008718;28;20037;-92
2023/11/20 11:11:03;;;;;;;3.35;1.33;;;11.70;97.90;;;;;;5024058;28;20018;-92
2023/11/20 11:13:35;;;;;;;3.03;1.35;;;11.60;99.50;;;;;;5027251;28;20037;-93
2023/11/20 11:16:04;;;;;;;5.00;1.10;;;11.20;99.90;;;;;;5027898;28;20045;-94
2023/11/20 11:18:30;;;;;;;5.30;1.75;;;11.10;99.90;;;;;;5026769;28;20034;-93
2023/11/20 11:20:59;;;;;;;2.60;1.20;;;11.10;99.90;;;;;;5028974;28;20393;-93
2023/11/20 11:23:50;;;;;;;2.22;1.15;;;11.30;99.90;;;;;;5030679;28;20381;-93
2023/11/20 11:26:42;;;;;;;5.40;1.60;;;11.50;99.90;;;;;;5012422;28;20029;-93
2023/11/20 11:29:20;;;;;;;4.72;1.77;;;11.90;99.90;;;;;;5030090;28;20026;-90
2023/11/20 11:32:15;;;;;;;3.90;1.45;;;12.30;99.90;;;;;;5029887;28;20022;-93
2023/11/20 11:34:48;;;;;;;5.85;1.70;;;12.90;99.90;;;;;;5046578;28;20026;-93
2023/11/20 11:37:37;;;;;;;4.95;1.13;;;13.50;98.20;;;;;;5031591;28;20026;-93
2023/11/20 11:40:41;;;;;;;3.28;1.08;;;13.60;95.40;;;;;;5013541;28;20108;-93
2023/11/20 11:43:24;;;;;;;4.72;1.27;;;13.40;93.40;;;;;;5012116;28;20068;-93
2023/11/20 11:45:52;;;;;;;6.30;1.98;;;12.90;96.20;;;;;;5010749;28;20037;-94
2023/11/20 11:48:18;;;;;;;2.03;1.00;;;12.50;99.00;;;;;;5032184;28;20034;-91
2023/11/20 11:50:46;;;;;;;5.10;1.45;;;12.20;99.90;;;;;;5013872;28;20076;-94
2023/11/20 11:53:12;;;;;;;2.08;1.20;;;11.80;99.90;;;;;;5030267;28;20056;-93
2023/11/20 11:55:42;;;;;;;4.65;1.85;;;11.60;99.90;;;;;;5010259;28;20022;-93
2023/11/20 11:58:15;;;;;;;1.40;1.30;;;11.40;99.90;;;;;;5028418;28;20464;-93
2023/11/20 12:00:41;;;;;;;4.20;1.17;;;11.20;99.90;;;;;;5012982;28;20061;-93
2023/11/20 12:03:11;;;;;;;2.75;1.05;;;11.10;99.90;;;;;;5014815;28;20053;-94
2023/11/20 12:05:55;;;;;;;4.18;1.40;;;11.00;99.90;;;;;;5020129;28;20033;-93
2023/11/20 12:08:22;;;;;;;3.13;0.98;;;10.90;99.90;;;;;;5029546;28;20029;-93
2023/11/20 12:10:51;;;;;;;5.30;1.70;;;10.70;99.90;;;;;;5031064;28;20045;-93
2023/11/20 12:13:22;;;;;;;4.57;1.33;;;10.80;99.90;;;;;;5030189;28;20033;-95
2023/11/20 12:15:51;;;;;;;4.75;1.30;;;10.80;99.90;;;;;;5030294;28;20026;-95
2023/11/20 12:18:24;;;;;;;5.82;1.65;;;10.80;99.90;;;;;;5015988;28;20057;-94
2023/11/20 12:20:50;;;;;;;2.78;1.52;;;11.70;99.90;;;;;;5034235;28;20093;-94
2023/11/20 12:23:32;;;;;;;6.88;1.63;;;12.40;99.90;;;;;;5032594;28;20117;-94
2023/11/20 12:26:06;;;;;;;3.85;1.25;;;12.20;99.90;;;;;;5030685;28;20558;-94
2023/11/20 12:28:33;;;;;;;;;;;11.90;99.90;;;;;;5031305;28;20054;-94
2023/11/20 12:31:06;;;;;;;;;;;11.80;99.90;;;;;;5032217;28;20355;-94
2023/11/20 12:33:34;;;;;;;2.78;1.33;;;11.70;99.90;;;;;;5012006;28;19925;-93
2023/11/20 12:36:00;;;;;;;3.85;1.38;;;12.20;99.90;;;;;;5027472;28;20026;-94
2023/11/20 12:38:36;;;;;;;4.13;1.55;;;12.80;99.90;;;;;;5031625;28;20049;-93
2023/11/20 12:41:06;;;;;;;3.15;2.33;;;12.90;99.90;;;;;;5030736;28;20164;-93
2023/11/20 12:43:33;;;;;;;4.32;1.33;;;12.70;99.90;;;;;;5024437;28;20303;-93
2023/11/20 12:46:06;;;;;;;3.22;1.20;;;12.80;99.90;;;;;;5027906;28;20037;-95
2023/11/20 12:48:36;;;;;;;4.30;1.52;;;12.70;99.90;;;;;;5030149;28;20055;-94
2023/11/20 12:51:02;;;;;;;6.00;2.42;;;12.70;99.90;;;;;;5011029;28;20018;-93